Time;durP1;ratioP1;P1;durP2;ratioP2;P2;SDS_P1;SDS_P2;PMS_P1;PMS_P2;Temp;Humidity;BMP_temperature;BMP_pressure;BME280_temperature;BME280_humidity;BME280_pressure;Samples;Min_cycle;Max_cycle;Signal;HPM_P1;HPM_P2
2021/03/11 00:00:42;;;;;;;22.80;13.43;;;;;;;5.19;62.71;97669.97;5046115;28;20245;-73
2021/03/11 00:03:08;;;;;;;21.65;12.90;;;;;;;5.21;62.52;97664.78;5045986;28;20214;-73
2021/03/11 00:05:35;;;;;;;22.20;13.68;;;;;;;5.21;62.83;97664.78;5045592;28;20825;-74
2021/03/11 00:08:02;;;;;;;21.80;13.48;;;;;;;5.22;62.70;97663.91;5046394;28;20215;-74
2021/03/11 00:10:28;;;;;;;22.48;13.25;;;;;;;5.25;62.94;97665.53;5045892;28;20466;-74
2021/03/11 00:12:54;;;;;;;22.40;14.03;;;;;;;5.30;62.78;97663.69;5046405;28;20222;-74
2021/03/11 00:15:22;;;;;;;21.73;13.38;;;;;;;5.24;63.12;97649.19;5047922;28;20447;-75
2021/03/11 00:17:49;;;;;;;23.60;13.77;;;;;;;5.28;62.82;97657.72;5043259;28;20238;-74
2021/03/11 00:20:16;;;;;;;25.45;14.75;;;;;;;5.27;63.21;97656.84;5045735;28;20710;-74
2021/03/11 00:22:43;;;;;;;22.05;13.10;;;;;;;5.28;63.07;97660.31;5045996;28;20218;-73
2021/03/11 00:25:11;;;;;;;20.02;12.38;;;;;;;5.29;63.32;97641.31;5045261;28;20224;-74
2021/03/11 00:27:38;;;;;;;22.33;13.50;;;;;;;5.22;63.63;97649.22;5046093;28;20383;-75
2021/03/11 00:30:06;;;;;;;21.15;13.30;;;;;;;5.27;63.31;97643.09;5046052;28;20222;-73
2021/03/11 00:32:32;;;;;;;20.10;13.57;;;;;;;5.15;63.95;97645.09;5046264;28;20226;-73
2021/03/11 00:34:58;;;;;;;26.40;13.50;;;;;;;5.10;63.96;97652.09;5046078;28;20228;-73
2021/03/11 00:37:24;;;;;;;20.92;12.05;;;;;;;4.95;64.83;97657.66;5047715;28;20253;-74
2021/03/11 00:39:51;;;;;;;18.63;9.93;;;;;;;4.82;65.28;97652.78;5045387;28;20218;-73
2021/03/11 00:42:18;;;;;;;22.58;11.40;;;;;;;4.76;65.46;97646.88;5044949;28;20237;-74
2021/03/11 00:44:44;;;;;;;21.60;13.63;;;;;;;4.73;66.04;97645.25;5046274;28;20862;-74
2021/03/11 00:47:10;;;;;;;24.73;14.68;;;;;;;4.79;66.00;97642.50;5044785;28;20781;-74
2021/03/11 00:49:36;;;;;;;24.60;13.75;;;;;;;4.95;65.33;97624.06;5045968;28;20230;-74
2021/03/11 00:52:03;;;;;;;22.75;11.48;;;;;;;5.06;64.96;97634.97;5045624;28;20252;-73
2021/03/11 00:54:29;;;;;;;24.53;15.10;;;;;;;5.18;64.89;97631.22;5045743;28;20218;-73
2021/03/11 00:56:56;;;;;;;17.83;9.77;;;;;;;5.16;65.20;97626.09;5044949;28;20246;-74
2021/03/11 00:59:22;;;;;;;21.77;12.73;;;;;;;5.27;64.49;97633.56;5045699;28;20228;-73
2021/03/11 01:01:48;;;;;;;20.52;11.80;;;;;;;5.26;64.66;97626.72;5044019;28;20816;-75
2021/03/11 01:04:15;;;;;;;22.85;12.85;;;;;;;5.29;64.58;97610.25;5044606;28;20222;-74
2021/03/11 01:16:47;;;;;;;20.38;11.20;;;;;;;5.33;64.65;97580.84;5045065;28;20303;-75
2021/03/11 01:19:14;;;;;;;20.15;10.48;;;;;;;5.41;64.34;97584.09;5046147;28;20633;-74
2021/03/11 01:22:15;;;;;;;20.23;12.87;;;;;;;5.52;63.87;97581.22;5045109;28;20241;-74
2021/03/11 01:28:06;;;;;;;20.13;13.23;;;;;;;5.65;63.55;97550.69;4953804;28;20394;-73
2021/03/11 01:30:34;;;;;;;19.85;12.25;;;;;;;5.67;63.42;97530.78;4984268;28;20223;-75
2021/03/11 01:33:01;;;;;;;16.77;11.77;;;;;;;5.68;63.70;97538.50;5010296;28;20211;-75
2021/03/11 01:35:28;;;;;;;19.52;12.55;;;;;;;5.76;63.18;97523.59;5025067;28;20809;-74
2021/03/11 01:37:54;;;;;;;19.25;11.88;;;;;;;5.78;63.23;97523.56;5025217;28;20230;-74
2021/03/11 01:40:20;;;;;;;21.88;13.30;;;;;;;5.86;62.89;97518.97;5024370;28;20222;-73
2021/03/11 01:42:46;;;;;;;21.02;12.52;;;;;;;5.88;62.13;97501.69;5026889;28;20211;-73
2021/03/11 01:45:13;;;;;;;23.30;12.32;;;;;;;5.89;62.48;97512.88;5024368;28;20249;-73
2021/03/11 01:47:39;;;;;;;19.10;11.43;;;;;;;5.87;62.45;97501.72;5024837;28;20271;-73
2021/03/11 01:50:07;;;;;;;20.30;12.32;;;;;;;5.92;62.19;97492.94;5023991;28;20896;-73
2021/03/11 01:52:34;;;;;;;19.08;11.90;;;;;;;5.93;62.31;97492.03;5030165;28;20210;-73
2021/03/11 01:55:00;;;;;;;19.48;11.93;;;;;;;5.95;62.37;97481.63;5024481;28;20292;-74
2021/03/11 01:57:26;;;;;;;20.63;12.15;;;;;;;5.77;63.34;97477.84;5025064;28;20242;-73
2021/03/11 01:59:53;;;;;;;15.30;8.07;;;;;;;5.64;63.81;97486.88;5023852;28;20211;-74
2021/03/11 02:02:19;;;;;;;21.50;13.45;;;;;;;5.72;63.37;97469.41;5023038;28;20245;-73
2021/03/11 02:04:45;;;;;;;18.95;12.48;;;;;;;5.80;62.91;97472.59;5024014;28;20216;-74
2021/03/11 02:07:12;;;;;;;22.92;13.52;;;;;;;5.87;62.64;97474.09;5022718;28;20242;-74
2021/03/11 02:09:38;;;;;;;24.05;14.55;;;;;;;5.88;62.82;97480.13;5024151;28;20766;-74
2021/03/11 02:12:12;;;;;;;39.80;19.00;;;;;;;5.80;62.64;97463.06;5023940;28;20245;-74
2021/03/11 02:14:47;;;;;;;31.30;17.52;;;;;;;5.92;62.49;97461.88;5025191;28;20210;-74
2021/03/11 02:17:14;;;;;;;24.38;13.88;;;;;;;5.96;62.20;97453.13;5026715;28;20229;-74
2021/03/11 02:20:03;;;;;;;22.08;13.85;;;;;;;6.00;61.89;97451.31;5025169;28;20209;-75
2021/03/11 02:22:44;;;;;;;24.13;13.35;;;;;;;6.01;62.01;97444.38;5026220;28;20333;-74
2021/03/11 02:25:14;;;;;;;22.27;12.77;;;;;;;5.97;62.01;97434.13;5022613;28;20207;-76
2021/03/11 02:27:49;;;;;;;19.38;11.43;;;;;;;6.01;61.82;97426.25;5023658;28;20671;-74
2021/03/11 02:30:16;;;;;;;18.02;10.88;;;;;;;6.06;61.31;97416.59;5023426;28;20225;-74
2021/03/11 02:32:43;;;;;;;19.27;11.60;;;;;;;6.08;61.52;97402.69;5025083;28;20215;-73
2021/03/11 02:35:10;;;;;;;17.90;11.88;;;;;;;6.07;61.48;97402.78;5024434;28;20268;-74
2021/03/11 02:37:40;;;;;;;17.15;11.02;;;;;;;6.06;62.17;97411.41;5023905;28;20230;-71
2021/03/11 02:40:09;;;;;;;19.35;11.45;;;;;;;6.06;61.97;97403.66;5023442;28;20876;-74
2021/03/11 02:42:36;;;;;;;18.92;12.52;;;;;;;6.08;61.51;97394.94;5024918;28;20206;-74
2021/03/11 02:45:03;;;;;;;17.10;10.48;;;;;;;6.06;61.46;97388.97;5026458;28;20263;-74
2021/03/11 02:47:31;;;;;;;17.88;11.20;;;;;;;6.11;61.21;97392.25;5024373;28;20285;-73
2021/03/11 02:49:58;;;;;;;17.48;11.77;;;;;;;6.12;60.79;97380.16;5024470;28;20265;-75
2021/03/11 02:52:25;;;;;;;17.35;11.27;;;;;;;6.05;61.36;97384.69;5024627;28;20237;-74
2021/03/11 02:54:52;;;;;;;17.40;11.05;;;;;;;6.03;61.20;97380.44;5023190;28;20207;-74
2021/03/11 02:57:19;;;;;;;17.27;11.43;;;;;;;6.08;61.09;97365.63;5019394;28;20261;-74
2021/03/11 02:59:46;;;;;;;17.83;10.50;;;;;;;6.13;60.66;97366.31;5024340;28;20808;-74
2021/03/11 03:02:12;;;;;;;18.77;11.13;;;;;;;6.12;60.85;97372.38;5023225;28;20724;-74
2021/03/11 03:04:39;;;;;;;18.38;11.45;;;;;;;6.14;60.92;97368.03;5022727;28;20222;-73
2021/03/11 03:07:07;;;;;;;19.58;10.38;;;;;;;6.10;60.96;97366.41;5025015;28;20776;-73
2021/03/11 03:09:34;;;;;;;18.38;9.35;;;;;;;6.10;60.81;97356.06;5023567;28;20294;-74
2021/03/11 03:12:00;;;;;;;15.75;10.18;;;;;;;6.13;60.60;97353.38;5023674;28;20242;-73
2021/03/11 03:14:26;;;;;;;16.02;9.93;;;;;;;6.15;60.52;97347.22;5023474;28;20207;-73
2021/03/11 03:16:54;;;;;;;13.73;10.23;;;;;;;6.16;60.06;97342.91;5023613;28;20757;-74
2021/03/11 03:19:20;;;;;;;13.07;7.80;;;;;;;6.18;60.13;97338.53;5027715;28;20747;-73
2021/03/11 03:21:47;;;;;;;13.57;9.23;;;;;;;6.19;59.83;97329.84;5028259;28;20246;-76
2021/03/11 03:24:16;;;;;;;16.95;10.15;;;;;;;6.22;59.72;97324.56;5028883;28;20222;-73
2021/03/11 03:26:42;;;;;;;15.45;10.40;;;;;;;6.23;59.90;97315.91;5026365;28;20241;-74
2021/03/11 03:29:08;;;;;;;17.20;10.65;;;;;;;6.24;59.74;97322.78;5027693;28;20257;-74
2021/03/11 03:31:34;;;;;;;16.98;10.00;;;;;;;6.18;60.26;97317.81;5026420;28;20243;-73
2021/03/11 03:34:00;;;;;;;18.88;10.82;;;;;;;6.26;59.82;97326.16;5027458;28;20241;-74
2021/03/11 03:36:26;;;;;;;14.20;9.85;;;;;;;6.27;59.69;97321.84;5026189;28;20247;-74
2021/03/11 03:38:55;;;;;;;16.13;9.40;;;;;;;6.24;59.90;97325.38;5026903;28;20222;-74
2021/03/11 03:41:22;;;;;;;15.30;9.35;;;;;;;6.20;59.79;97326.38;5026124;28;20319;-74
2021/03/11 03:43:50;;;;;;;15.43;10.00;;;;;;;6.25;60.38;97340.00;5026722;28;20236;-73
2021/03/11 03:46:20;;;;;;;15.27;9.57;;;;;;;6.25;60.30;97334.84;5026443;28;20242;-73
2021/03/11 03:48:50;;;;;;;17.45;10.70;;;;;;;6.22;60.98;97339.28;5027974;28;20215;-73
2021/03/11 03:51:17;;;;;;;15.63;10.07;;;;;;;6.25;61.21;97329.66;5026369;28;20261;-73
2021/03/11 03:53:44;;;;;;;20.15;11.70;;;;;;;6.28;61.16;97323.50;5026520;28;20272;-73
2021/03/11 03:56:16;;;;;;;16.85;10.25;;;;;;;6.26;61.49;97330.50;5026169;28;21040;-74
2021/03/11 03:58:43;;;;;;;20.00;10.68;;;;;;;6.21;62.11;97342.75;5026548;28;20234;-73
2021/03/11 04:01:09;;;;;;;19.40;11.50;;;;;;;6.17;62.46;97332.47;5026031;28;20258;-74
2021/03/11 04:03:37;;;;;;;20.98;11.80;;;;;;;6.15;63.14;97328.25;5026490;28;20226;-75
2021/03/11 04:06:03;;;;;;;18.02;11.98;;;;;;;6.09;64.11;97333.66;5026429;28;20242;-73
2021/03/11 04:08:29;;;;;;;16.95;11.75;;;;;;;6.01;64.68;97323.56;5026359;28;20214;-74
2021/03/11 04:10:56;;;;;;;19.17;12.32;;;;;;;6.02;64.91;97316.63;5025897;28;20238;-74
2021/03/11 04:13:24;;;;;;;19.40;12.02;;;;;;;6.04;65.23;97304.50;5026133;28;20215;-74
2021/03/11 04:15:50;;;;;;;17.27;11.65;;;;;;;6.01;65.64;97294.22;5027428;28;20242;-74
2021/03/11 04:18:17;;;;;;;19.23;12.10;;;;;;;6.02;66.15;97283.81;5026601;28;20329;-73
2021/03/11 04:20:44;;;;;;;19.20;12.77;;;;;;;5.95;66.91;97271.94;5025434;28;20246;-73
2021/03/11 04:23:10;;;;;;;19.58;13.23;;;;;;;5.98;66.53;97275.31;5025599;28;20227;-74
2021/03/11 04:25:36;;;;;;;20.50;12.98;;;;;;;5.94;67.20;97265.94;5025031;28;20280;-74
2021/03/11 04:28:02;;;;;;;18.80;12.25;;;;;;;5.86;68.34;97265.34;5025977;28;20290;-73
2021/03/11 04:30:30;;;;;;;22.00;13.02;;;;;;;5.83;68.47;97262.88;5024821;28;20242;-73
2021/03/11 04:32:56;;;;;;;19.13;12.25;;;;;;;5.84;68.21;97255.94;5025845;28;20215;-74
2021/03/11 04:35:22;;;;;;;19.52;13.00;;;;;;;5.86;68.18;97261.91;5025291;28;20230;-74
2021/03/11 04:37:48;;;;;;;23.30;13.52;;;;;;;5.80;68.90;97265.56;5026273;28;20245;-74
2021/03/11 04:40:15;;;;;;;21.02;13.15;;;;;;;5.80;68.75;97260.38;5025256;28;20324;-74
2021/03/11 04:42:42;;;;;;;22.52;13.40;;;;;;;5.75;69.13;97260.56;5025062;28;20222;-73
2021/03/11 04:45:09;;;;;;;19.73;11.65;;;;;;;5.75;69.41;97262.28;5026075;28;20452;-73
2021/03/11 04:47:37;;;;;;;19.10;11.38;;;;;;;5.69;69.83;97258.16;5026164;28;20211;-73
2021/03/11 04:50:04;;;;;;;21.42;13.27;;;;;;;5.75;69.18;97246.75;5026516;28;20301;-73
2021/03/11 04:52:30;;;;;;;22.27;14.57;;;;;;;5.79;69.13;97243.19;5025464;28;20217;-74
2021/03/11 04:54:56;;;;;;;20.48;12.82;;;;;;;5.74;69.86;97247.66;5028420;28;20843;-73
2021/03/11 04:57:23;;;;;;;19.17;11.85;;;;;;;5.63;70.97;97252.34;5024970;28;20285;-74
2021/03/11 04:59:49;;;;;;;20.08;13.07;;;;;;;5.70;70.03;97243.50;5021778;28;20215;-74
2021/03/11 05:02:15;;;;;;;18.80;11.82;;;;;;;5.73;69.83;97228.69;5025125;28;20239;-74
2021/03/11 05:04:43;;;;;;;22.48;14.07;;;;;;;5.71;70.21;97229.63;5025203;28;20218;-73
2021/03/11 05:07:09;;;;;;;22.73;12.85;;;;;;;5.68;70.62;97224.56;5022829;28;20234;-74
2021/03/11 05:09:36;;;;;;;19.60;12.38;;;;;;;5.57;72.11;97217.19;5027038;28;20927;-73
2021/03/11 05:12:03;;;;;;;20.75;12.63;;;;;;;5.57;71.80;97205.09;5024880;28;20766;-74
2021/03/11 05:14:29;;;;;;;23.23;13.50;;;;;;;5.60;71.14;97210.13;5025947;28;20831;-74
2021/03/11 05:16:55;;;;;;;18.13;11.98;;;;;;;5.62;71.22;97211.84;5023967;28;20239;-73
2021/03/11 05:19:21;;;;;;;21.67;13.10;;;;;;;5.62;71.20;97204.09;5027385;28;20215;-73
2021/03/11 05:21:48;;;;;;;22.25;13.35;;;;;;;5.63;71.17;97209.22;5024353;28;20454;-73
2021/03/11 05:24:14;;;;;;;22.10;14.32;;;;;;;5.59;71.24;97211.06;5024484;28;20248;-74
2021/03/11 05:26:40;;;;;;;22.75;14.23;;;;;;;5.59;71.49;97205.03;5024309;28;20250;-74
2021/03/11 05:29:06;;;;;;;23.40;13.23;;;;;;;5.54;72.26;97201.75;5025298;28;20942;-74
2021/03/11 05:31:32;;;;;;;24.08;13.18;;;;;;;5.51;72.25;97205.28;5023824;28;20247;-74
2021/03/11 05:33:58;;;;;;;23.33;13.48;;;;;;;5.50;72.43;97195.84;5024361;28;20221;-74
2021/03/11 05:36:26;;;;;;;24.17;13.57;;;;;;;5.55;72.35;97188.78;5024234;28;20239;-73
2021/03/11 05:38:53;;;;;;;21.80;12.95;;;;;;;5.59;72.18;97184.34;5024758;28;20227;-75
2021/03/11 05:41:21;;;;;;;25.17;13.30;;;;;;;5.51;72.64;97179.41;5024156;28;20237;-74
2021/03/11 05:43:47;;;;;;;19.80;12.27;;;;;;;5.49;73.00;97162.25;5025009;28;20215;-74
2021/03/11 05:46:14;;;;;;;22.60;13.90;;;;;;;5.56;72.27;97169.75;5023770;28;20254;-74
2021/03/11 05:48:41;;;;;;;19.95;13.05;;;;;;;5.53;72.48;97154.38;5024407;28;20276;-74
2021/03/11 05:51:08;;;;;;;21.20;14.10;;;;;;;5.54;72.34;97158.63;5024198;28;20298;-74
2021/03/11 05:53:34;;;;;;;21.63;12.52;;;;;;;5.52;72.79;97163.00;5023772;28;20612;-74
2021/03/11 05:56:01;;;;;;;21.25;13.43;;;;;;;5.53;72.81;97156.09;5024631;28;20254;-75
2021/03/11 05:58:27;;;;;;;18.77;11.65;;;;;;;5.51;72.63;97150.97;5024795;28;20248;-74
2021/03/11 06:00:53;;;;;;;19.98;12.52;;;;;;;5.50;72.55;97144.13;5023565;28;20239;-74
2021/03/11 06:03:21;;;;;;;21.33;12.98;;;;;;;5.45;72.96;97146.00;5023622;28;20213;-74
2021/03/11 06:05:47;;;;;;;18.50;12.05;;;;;;;5.46;72.94;97152.88;5028093;28;20785;-76
2021/03/11 06:08:13;;;;;;;19.45;12.55;;;;;;;5.50;73.08;97143.28;5028116;28;20697;-74
2021/03/11 06:10:39;;;;;;;19.48;11.52;;;;;;;5.45;73.31;97148.59;5026144;28;20242;-74
2021/03/11 06:13:08;;;;;;;22.98;11.93;;;;;;;5.47;73.36;97149.38;5028014;28;20228;-74
2021/03/11 06:15:36;;;;;;;18.38;12.18;;;;;;;5.50;73.26;97144.13;5026387;28;20308;-74
2021/03/11 06:18:05;;;;;;;18.70;11.57;;;;;;;5.45;73.92;97164.09;5026921;28;20246;-74
2021/03/11 06:20:31;;;;;;;22.40;13.43;;;;;;;5.49;73.47;97142.41;5026416;28;20238;-74
2021/03/11 06:22:57;;;;;;;20.88;11.25;;;;;;;5.55;73.31;97157.75;5026857;28;20218;-75
2021/03/11 06:25:24;;;;;;;17.63;11.15;;;;;;;5.37;75.49;97159.19;5026372;28;20223;-74
2021/03/11 06:27:50;;;;;;;16.65;9.80;;;;;;;5.40;74.46;97171.16;5026836;28;20223;-74
2021/03/11 06:30:40;;;;;;;20.27;12.55;;;;;;;5.54;73.78;97161.22;5026240;28;20229;-73
2021/03/11 06:33:06;;;;;;;17.73;12.40;;;;;;;5.58;72.96;97155.03;5024804;28;20223;-77
2021/03/11 06:35:33;;;;;;;18.65;12.00;;;;;;;5.65;72.46;97152.25;5025853;28;20319;-73
2021/03/11 06:37:59;;;;;;;20.05;11.38;;;;;;;5.71;72.31;97144.25;5028089;28;20284;-74
2021/03/11 06:40:27;;;;;;;18.05;11.65;;;;;;;5.74;72.47;97159.69;5024205;28;20775;-73
2021/03/11 06:43:07;;;;;;;16.42;11.30;;;;;;;5.74;72.19;97137.22;5026065;28;20214;-73
2021/03/11 06:45:34;;;;;;;19.90;12.77;;;;;;;5.82;72.11;97143.88;5025614;28;20723;-73
2021/03/11 06:48:19;;;;;;;18.80;12.38;;;;;;;5.83;71.77;97136.06;5026742;28;20312;-73
2021/03/11 06:50:45;;;;;;;18.23;11.18;;;;;;;5.85;72.01;97134.25;5024190;28;20376;-73
2021/03/11 06:53:11;;;;;;;16.88;10.00;;;;;;;5.75;73.14;97141.53;5026027;28;20548;-74
2021/03/11 06:55:37;;;;;;;17.65;11.80;;;;;;;5.81;72.39;97145.63;5025431;28;20249;-73
2021/03/11 06:58:24;;;;;;;19.02;12.18;;;;;;;5.86;71.93;97135.94;5027115;28;20209;-75
2021/03/11 07:01:04;;;;;;;17.90;11.57;;;;;;;5.95;71.47;97134.78;5027263;28;20234;-73
2021/03/11 07:03:38;;;;;;;18.02;11.52;;;;;;;6.02;71.11;97112.13;5027671;28;20245;-73
2021/03/11 07:06:05;;;;;;;15.00;10.32;;;;;;;6.00;71.60;97121.72;5024675;28;20287;-73
2021/03/11 07:08:31;;;;;;;15.43;11.00;;;;;;;6.02;71.59;97115.56;5026359;28;20223;-73
2021/03/11 07:11:04;;;;;;;17.00;10.38;;;;;;;6.07;71.54;97108.47;5026617;28;20240;-73
2021/03/11 07:13:38;;;;;;;16.70;10.05;;;;;;;6.15;70.53;97110.78;5022667;28;20556;-73
2021/03/11 07:16:11;;;;;;;16.13;10.63;;;;;;;6.19;70.36;97101.97;5025615;28;20237;-71
2021/03/11 07:18:38;;;;;;;16.02;11.02;;;;;;;6.20;70.71;97103.69;5025744;28;20230;-73
2021/03/11 07:21:04;;;;;;;17.20;10.02;;;;;;;6.22;70.88;97101.88;5026906;28;20759;-73
2021/03/11 07:23:31;;;;;;;15.30;11.40;;;;;;;6.24;70.60;97105.25;5025797;28;20218;-74
2021/03/11 07:25:57;;;;;;;18.05;11.15;;;;;;;6.31;70.25;97111.03;5025582;28;20243;-72
2021/03/11 07:28:25;;;;;;;15.38;10.38;;;;;;;6.39;70.03;97103.81;5026069;28;20223;-73
2021/03/11 07:30:52;;;;;;;14.05;10.00;;;;;;;6.43;69.72;97125.25;5025070;28;20767;-72
2021/03/11 07:33:19;;;;;;;14.60;9.88;;;;;;;6.48;69.75;97126.78;5025785;28;20222;-73
2021/03/11 07:35:47;;;;;;;15.55;11.10;;;;;;;6.54;69.34;97130.88;5026978;28;20242;-73
2021/03/11 07:38:16;;;;;;;13.35;9.95;;;;;;;6.52;70.02;97133.50;5025618;28;20288;-73
2021/03/11 07:40:43;;;;;;;15.90;10.60;;;;;;;6.61;69.19;97108.16;5025201;28;20334;-73
2021/03/11 07:43:09;;;;;;;14.88;10.93;;;;;;;6.66;68.44;97090.69;5027165;28;20275;-73
2021/03/11 07:45:35;;;;;;;12.95;9.25;;;;;;;6.66;69.05;97098.47;5024906;28;20266;-72
2021/03/11 07:48:02;;;;;;;16.65;10.85;;;;;;;6.70;69.50;97098.28;5026185;28;20215;-73
2021/03/11 07:50:29;;;;;;;13.75;9.60;;;;;;;6.77;68.54;97098.03;5022151;28;20231;-73
2021/03/11 07:52:56;;;;;;;14.75;9.85;;;;;;;6.79;67.86;97097.06;5025483;28;20200;-72
2021/03/11 07:55:26;;;;;;;14.30;9.25;;;;;;;6.83;68.10;97095.19;5024986;28;20211;-72
2021/03/11 07:57:52;;;;;;;15.43;9.98;;;;;;;6.88;68.08;97090.69;5025474;28;20261;-73
2021/03/11 08:00:25;;;;;;;15.23;9.90;;;;;;;6.92;67.16;97074.09;5025038;28;20723;-73
2021/03/11 08:02:54;;;;;;;15.43;10.00;;;;;;;6.97;66.98;97069.56;5025381;28;20218;-72
2021/03/11 08:05:25;;;;;;;12.95;9.27;;;;;;;7.01;66.98;97065.09;5027137;28;20218;-74
2021/03/11 08:08:17;;;;;;;14.10;9.60;;;;;;;7.09;66.31;97073.38;5029360;28;20296;-73
2021/03/11 08:10:44;;;;;;;12.90;9.60;;;;;;;7.07;66.36;97070.84;5030349;28;20742;-73
2021/03/11 08:15:36;;;;;;;14.27;9.65;;;;;;;7.13;65.92;97069.75;5102751;27;21097;-74
2021/03/11 08:18:02;;;;;;;17.27;10.05;;;;;;;7.11;65.65;97080.19;5077038;28;20243;-73
2021/03/11 08:20:40;;;;;;;15.85;9.98;;;;;;;7.11;65.80;97077.59;5076918;28;20240;-74
2021/03/11 08:23:10;;;;;;;13.60;10.50;;;;;;;7.19;66.34;97079.03;5077073;28;20225;-73
2021/03/11 08:25:43;;;;;;;13.20;9.73;;;;;;;7.25;66.07;97082.19;5076743;28;20327;-73
2021/03/11 08:28:34;;;;;;;14.50;8.98;;;;;;;7.22;66.06;97071.13;5076307;28;20221;-74
2021/03/11 08:31:03;;;;;;;15.13;10.02;;;;;;;7.30;65.60;97071.66;5070068;28;20240;-74
2021/03/11 08:33:46;;;;;;;14.02;9.85;;;;;;;7.38;65.58;97077.34;5075738;28;20289;-74
2021/03/11 08:36:29;;;;;;;14.38;10.15;;;;;;;7.43;65.61;97072.78;5076225;28;20653;-73
2021/03/11 08:38:56;;;;;;;13.25;9.10;;;;;;;7.44;65.01;97058.91;5076060;28;20836;-73
2021/03/11 08:41:32;;;;;;;12.90;10.10;;;;;;;7.50;65.42;97048.28;5076130;28;20240;-75
2021/03/11 08:43:59;;;;;;;12.73;9.75;;;;;;;7.56;64.93;97041.97;5074486;28;20215;-73
2021/03/11 08:46:50;;;;;;;13.95;9.50;;;;;;;7.63;65.18;97042.53;5076473;28;20717;-73
2021/03/11 08:49:36;;;;;;;14.60;9.43;;;;;;;7.66;66.25;97032.00;5077123;28;20212;-74
2021/03/11 08:52:03;;;;;;;13.55;9.18;;;;;;;7.72;64.76;97026.56;5075579;28;21265;-74
2021/03/11 08:54:30;;;;;;;14.07;9.32;;;;;;;7.76;64.10;97012.53;5076038;28;20259;-74
2021/03/11 08:56:56;;;;;;;14.13;9.27;;;;;;;7.83;64.29;97024.31;5076238;28;20294;-73
2021/03/11 08:59:22;;;;;;;13.30;9.60;;;;;;;7.87;64.42;97015.47;5076668;28;20718;-74
2021/03/11 09:01:50;;;;;;;15.30;9.45;;;;;;;7.95;64.04;97017.72;5075727;28;20269;-74
2021/03/11 09:04:37;;;;;;;14.05;9.52;;;;;;;7.96;65.59;97005.56;5075014;28;20213;-74
2021/03/11 09:07:04;;;;;;;17.45;10.13;;;;;;;8.06;64.68;96993.84;5075172;28;20236;-74
2021/03/11 09:09:39;;;;;;;15.90;11.23;;;;;;;8.12;65.12;96998.75;5076780;28;20217;-74
2021/03/11 09:12:06;;;;;;;18.52;10.98;;;;;;;8.19;64.91;97002.72;5074983;28;20239;-74
2021/03/11 09:14:33;;;;;;;18.60;10.93;;;;;;;8.24;64.63;97005.97;5075819;28;20402;-73
2021/03/11 09:17:05;;;;;;;16.98;10.18;;;;;;;8.32;63.84;96995.19;5066446;28;20255;-73
2021/03/11 09:19:37;;;;;;;16.35;10.23;;;;;;;8.39;63.95;96985.34;5074668;28;20224;-74
2021/03/11 09:22:19;;;;;;;16.58;10.27;;;;;;;8.45;64.00;96980.75;5073540;28;20241;-74
2021/03/11 09:25:12;;;;;;;15.88;10.05;;;;;;;8.49;64.05;96971.03;5073358;28;20654;-73
2021/03/11 09:27:39;;;;;;;17.50;9.70;;;;;;;8.52;63.86;96949.25;5061887;28;20248;-72
2021/03/11 09:30:08;;;;;;;18.98;10.32;;;;;;;8.58;64.54;96944.56;5060737;28;20221;-71
2021/03/11 09:32:36;;;;;;;15.68;9.77;;;;;;;8.68;64.47;96951.00;5062775;28;20224;-72
2021/03/11 09:35:05;;;;;;;18.45;9.15;;;;;;;8.76;64.01;96941.97;5061719;28;20245;-73
2021/03/11 09:37:59;;;;;;;19.67;9.77;;;;;;;8.84;64.11;96963.22;5062472;28;20233;-72
2021/03/11 09:40:31;;;;;;;16.85;9.55;;;;;;;8.89;64.14;96948.22;5025361;28;20731;-72
2021/03/11 09:43:17;;;;;;;18.30;10.30;;;;;;;8.95;63.99;96945.34;5061991;28;20293;-74
2021/03/11 09:45:45;;;;;;;20.00;8.93;;;;;;;8.96;64.79;96949.59;5061019;28;20324;-74
2021/03/11 09:48:14;;;;;;;19.67;9.60;;;;;;;9.05;64.25;96951.72;5062811;28;20221;-75
2021/03/11 09:50:50;;;;;;;19.67;9.32;;;;;;;9.10;65.37;96945.44;5061300;28;20741;-74
2021/03/11 09:53:16;;;;;;;23.00;10.20;;;;;;;9.18;64.47;96945.91;5060174;28;20206;-73
2021/03/11 09:55:42;;;;;;;24.90;10.43;;;;;;;9.22;64.76;96956.06;5062157;28;20256;-73
2021/03/11 09:58:14;;;;;;;22.63;10.18;;;;;;;9.28;64.03;96949.69;5060852;28;20810;-74
2021/03/11 10:00:40;;;;;;;20.63;9.55;;;;;;;9.32;64.02;96964.25;5062111;28;20241;-74
2021/03/11 10:03:16;;;;;;;21.38;9.63;;;;;;;9.35;64.16;96952.81;5060822;28;21080;-73
2021/03/11 10:05:43;;;;;;;23.02;9.23;;;;;;;9.40;64.04;96954.25;5061077;28;20712;-73
2021/03/11 10:08:09;;;;;;;22.40;10.45;;;;;;;9.45;63.86;96947.03;5060626;28;20222;-73
2021/03/11 10:10:35;;;;;;;20.52;9.57;;;;;;;9.51;63.97;96937.22;5061918;28;20232;-73
2021/03/11 10:13:02;;;;;;;19.30;9.02;;;;;;;9.55;64.14;96943.94;5061341;28;20304;-73
2021/03/11 10:15:28;;;;;;;16.48;7.60;;;;;;;9.60;63.97;96939.34;5059633;28;20590;-73
2021/03/11 10:18:08;;;;;;;16.88;7.72;;;;;;;9.69;63.87;96949.25;5061909;28;20270;-73
2021/03/11 10:20:37;;;;;;;21.40;9.75;;;;;;;9.75;63.92;96938.50;5060468;28;20244;-73
2021/03/11 10:23:16;;;;;;;19.73;8.40;;;;;;;9.84;63.97;96924.97;5061062;28;20236;-73
2021/03/11 10:25:42;;;;;;;22.65;8.77;;;;;;;9.94;63.54;96917.47;5061175;28;20256;-74
2021/03/11 10:28:09;;;;;;;22.77;8.50;;;;;;;10.08;62.86;96908.91;5060502;28;20705;-73
2021/03/11 10:30:37;;;;;;;24.05;9.10;;;;;;;10.25;63.32;96909.72;5061056;28;20260;-73
2021/03/11 10:33:05;;;;;;;26.25;9.02;;;;;;;10.40;62.49;96906.25;5061035;28;20606;-73
2021/03/11 10:35:32;;;;;;;20.73;8.00;;;;;;;10.51;61.88;96906.50;5061083;28;20240;-72
2021/03/11 10:40:51;;;;;;;17.85;6.95;;;;;;;10.72;61.64;96893.94;5098751;27;20566;-74
2021/03/11 10:43:19;;;;;;;21.85;7.53;;;;;;;10.80;61.84;96906.53;5062406;28;20215;-75
2021/03/11 10:45:45;;;;;;;25.85;8.55;;;;;;;10.91;61.96;96904.13;5065686;28;20247;-75
2021/03/11 10:48:12;;;;;;;25.80;8.05;;;;;;;10.97;60.91;96893.34;5083508;28;20213;-73
2021/03/11 10:50:42;;;;;;;25.80;8.68;;;;;;;11.02;60.76;96894.81;5081253;28;20233;-75
2021/03/11 10:53:08;;;;;;;23.05;7.88;;;;;;;11.00;61.60;96893.13;5082869;28;20266;-73
2021/03/11 10:55:37;;;;;;;26.13;8.48;;;;;;;10.98;61.82;96894.16;5081163;28;20247;-74
2021/03/11 10:58:05;;;;;;;24.80;7.60;;;;;;;10.95;61.92;96884.75;5082287;28;20220;-73
2021/03/11 11:00:32;;;;;;;23.75;7.30;;;;;;;10.97;61.40;96882.91;5076607;28;20245;-73
2021/03/11 11:03:01;;;;;;;21.45;7.65;;;;;;;10.99;61.76;96891.47;5061880;28;20221;-74
2021/03/11 11:05:28;;;;;;;22.65;7.40;;;;;;;10.98;62.40;96884.56;5066948;28;20244;-74
2021/03/11 11:07:54;;;;;;;21.13;6.90;;;;;;;10.99;62.10;96901.91;5082572;28;20220;-74
2021/03/11 11:10:22;;;;;;;19.50;6.32;;;;;;;11.00;61.67;96895.75;5077942;28;20219;-73
2021/03/11 11:12:48;;;;;;;27.98;8.45;;;;;;;11.04;62.18;96892.94;5063916;28;20220;-73
2021/03/11 11:15:17;;;;;;;25.35;7.05;;;;;;;11.07;61.91;96887.56;5062173;28;20613;-74
2021/03/11 11:17:43;;;;;;;19.73;6.80;;;;;;;11.08;62.14;96897.91;5081853;28;20221;-74
2021/03/11 11:20:11;;;;;;;20.85;6.32;;;;;;;11.09;61.84;96901.34;5080913;28;20290;-74
2021/03/11 11:22:38;;;;;;;24.58;6.63;;;;;;;11.13;62.38;96892.41;5060566;28;20217;-74
2021/03/11 11:25:06;;;;;;;20.77;6.40;;;;;;;11.15;62.43;96885.31;5062187;28;20218;-73
2021/03/11 11:27:32;;;;;;;21.38;6.38;;;;;;;11.18;62.35;96900.78;5060522;28;20264;-74
2021/03/11 11:29:58;;;;;;;20.17;5.75;;;;;;;11.18;62.79;96895.56;5061516;28;20210;-74
2021/03/11 11:32:26;;;;;;;17.42;5.93;;;;;;;11.21;62.51;96874.47;5060125;28;20296;-74
2021/03/11 11:34:52;;;;;;;18.83;5.75;;;;;;;11.23;62.22;96875.25;5061257;28;20224;-74
2021/03/11 11:37:18;;;;;;;21.70;6.18;;;;;;;11.26;62.64;96879.44;5078747;28;20236;-74
2021/03/11 11:39:45;;;;;;;22.17;6.28;;;;;;;11.28;62.96;96870.56;5080802;28;20243;-73
2021/03/11 11:42:12;;;;;;;23.70;6.70;;;;;;;11.30;63.05;96858.28;5063121;28;20324;-73
2021/03/11 11:44:38;;;;;;;15.07;6.40;;;;;;;11.33;62.92;96854.63;5060496;28;20249;-73
2021/03/11 11:47:05;;;;;;;15.63;5.78;;;;;;;11.37;63.42;96853.50;5077504;28;20325;-73
2021/03/11 11:49:32;;;;;;;18.50;5.93;;;;;;;11.40;63.09;96857.72;5081330;28;20224;-73
2021/03/11 11:51:58;;;;;;;16.92;6.07;;;;;;;11.42;63.18;96855.84;5052685;28;20325;-75